createdAt,value
2022-09-03T00:00:40.084Z,68.9
2022-09-03T00:02:41.330Z,69.1
2022-09-03T00:08:48.226Z,70.7
2022-09-03T00:15:19.086Z,73.4
2022-09-03T00:19:24.838Z,77.2
2022-09-03T00:21:26.058Z,78.4
2022-09-03T00:23:27.281Z,79.6
2022-09-03T00:25:28.901Z,80.2
2022-09-03T00:27:29.739Z,81.7
2022-09-03T00:29:31.005Z,83.1
2022-09-03T00:31:35.551Z,83.7
2022-09-03T00:33:36.723Z,84.3
2022-09-03T00:35:37.951Z,85.2
2022-09-03T00:37:39.195Z,85.3
2022-09-03T00:39:40.459Z,86.7
2022-09-03T00:41:41.658Z,87
2022-09-03T00:43:42.871Z,87.8
2022-09-03T00:45:47.426Z,89.6
2022-09-03T00:47:48.628Z,90.2
2022-09-03T00:49:49.851Z,90.5
2022-09-03T00:51:51.085Z,90.7
2022-09-03T00:53:52.313Z,91
2022-09-03T00:59:59.074Z,92.2
2022-09-03T01:02:00.341Z,92.7
2022-09-03T01:04:01.377Z,92.9
2022-09-03T01:05:03.510Z,93.2
2022-09-03T01:07:04.671Z,93.7
2022-09-03T01:09:05.809Z,94.1
2022-09-03T01:11:06.985Z,94.6
2022-09-03T01:13:11.416Z,95.5
2022-09-03T01:15:12.622Z,95.8
2022-09-03T01:19:15.039Z,96.9
2022-09-03T01:21:17.690Z,97.3
2022-09-03T01:23:18.913Z,97.7
2022-09-03T01:25:20.134Z,98.2
2022-09-03T01:27:24.669Z,99.1
2022-09-03T01:29:25.910Z,99.4
2022-09-03T01:31:27.253Z,99.6
2022-09-03T01:33:28.301Z,99.8
2022-09-03T01:37:30.790Z,99.9
2022-09-03T01:41:36.584Z,99.9
2022-09-03T01:43:40.963Z,99.9
2022-09-03T01:45:39.108Z,99.9
2022-09-03T01:47:40.328Z,99.9
2022-09-03T01:51:42.821Z,99.9
2022-09-03T01:53:44.116Z,99.9
2022-09-03T01:55:48.642Z,99.9
2022-09-03T01:59:51.140Z,99.9
2022-09-03T02:00:53.387Z,99.9
2022-09-03T02:02:54.693Z,99.9
2022-09-03T02:09:01.701Z,99.9
2022-09-03T02:11:02.941Z,99.9
2022-09-03T02:13:04.213Z,99.9
2022-09-03T02:15:05.445Z,99.9
2022-09-03T02:17:06.737Z,99.9
2022-09-03T02:19:07.938Z,99.9
2022-09-03T02:21:09.176Z,99.9
2022-09-03T02:23:13.743Z,99.9
2022-09-03T02:25:14.983Z,99.9
2022-09-03T02:27:16.238Z,99.9
2022-09-03T02:29:17.493Z,99.9
2022-09-03T02:31:18.804Z,99.9
2022-09-03T02:33:19.993Z,99.9
2022-09-03T02:35:21.267Z,99.9
2022-09-03T02:37:25.801Z,99.9
2022-09-03T02:39:27.115Z,99.9
2022-09-03T02:41:28.323Z,99.9
2022-09-03T02:43:29.583Z,99.9
2022-09-03T02:45:30.822Z,99.9
2022-09-03T02:47:32.230Z,99.9
2022-09-03T02:49:33.341Z,99.9
2022-09-03T02:51:37.854Z,99.9
2022-09-03T02:53:39.134Z,99.9
2022-09-03T02:55:40.336Z,99.9
2022-09-03T02:56:42.622Z,99.9
2022-09-03T02:58:43.892Z,99.9
2022-09-03T03:00:45.144Z,99.9
2022-09-03T03:02:46.511Z,99.9
2022-09-03T03:04:50.907Z,99.9
2022-09-03T03:06:52.164Z,99.9
2022-09-03T03:08:53.409Z,99.9
2022-09-03T03:10:54.692Z,99.9
2022-09-03T03:12:55.905Z,99.9
2022-09-03T03:14:57.165Z,99.9
2022-09-03T03:16:58.535Z,99.9
2022-09-03T03:19:02.951Z,99.9
2022-09-03T03:21:04.214Z,99.9
2022-09-03T03:23:05.461Z,99.9
2022-09-03T03:27:07.964Z,99.9
2022-09-03T03:29:09.218Z,99.9
2022-09-03T03:31:10.524Z,99.9
2022-09-03T03:33:15.003Z,99.9
2022-09-03T03:35:16.261Z,99.9
2022-09-03T03:37:17.481Z,99.9
2022-09-03T03:39:18.782Z,99.9
2022-09-03T03:41:20.009Z,99.9
2022-09-03T03:43:21.236Z,99.9
2022-09-03T03:49:28.284Z,99.9
2022-09-03T03:51:29.542Z,99.9
2022-09-03T03:54:00.140Z,99.9
2022-09-03T03:55:59.124Z,99.9
2022-09-03T03:58:00.364Z,99.9
2022-09-03T04:00:04.882Z,99.9
2022-09-03T04:02:06.184Z,99.9
2022-09-03T04:04:07.397Z,99.9
2022-09-03T04:06:08.636Z,99.9
2022-09-03T04:08:09.880Z,99.9
2022-09-03T04:10:11.167Z,99.9
2022-09-03T04:12:12.436Z,99.9
2022-09-03T04:14:16.957Z,99.9
2022-09-03T04:16:18.279Z,99.9
2022-09-03T04:18:19.477Z,99.9
2022-09-03T04:20:20.697Z,99.9
2022-09-03T04:22:21.952Z,99.9
2022-09-03T04:24:23.234Z,99.9
2022-09-03T04:28:28.996Z,99.9
2022-09-03T04:30:30.329Z,99.9
2022-09-03T04:32:31.491Z,99.9
2022-09-03T04:34:32.732Z,99.9
2022-09-03T04:36:33.990Z,99.9
2022-09-03T04:38:35.259Z,99.9
2022-09-03T04:40:36.509Z,99.9
2022-09-03T04:42:41.025Z,99.9
2022-09-03T04:46:43.576Z,99.9
2022-09-03T04:51:48.310Z,99.9
2022-09-03T04:53:49.564Z,99.9
2022-09-03T05:01:57.881Z,99.9
2022-09-03T05:03:59.121Z,99.9
2022-09-03T05:06:00.352Z,99.9
2022-09-03T05:08:01.602Z,99.9
2022-09-03T05:14:08.639Z,99.9
2022-09-03T05:16:09.966Z,99.9
2022-09-03T05:22:13.673Z,99.9
2022-09-03T05:24:18.199Z,99.9
2022-09-03T05:26:19.447Z,99.9
2022-09-03T05:28:20.723Z,99.9
2022-09-03T05:30:21.983Z,99.9
2022-09-03T05:32:23.233Z,99.9
2022-09-03T05:34:24.493Z,99.9
2022-09-03T05:36:25.755Z,99.9
2022-09-03T05:38:30.272Z,99.9
2022-09-03T05:40:31.531Z,99.9
2022-09-03T05:42:32.813Z,99.9
2022-09-03T05:43:35.059Z,99.9
2022-09-03T05:45:36.378Z,99.9
2022-09-03T05:47:37.575Z,99.9
2022-09-03T05:49:38.808Z,99.9
2022-09-03T05:51:43.333Z,99.9
2022-09-03T05:53:44.617Z,99.9
2022-09-03T05:55:45.859Z,99.9
2022-09-03T05:57:47.126Z,99.9
2022-09-03T05:59:48.394Z,99.9
2022-09-03T06:01:50.942Z,99.9
2022-09-03T06:03:50.883Z,99.9
2022-09-03T06:05:55.397Z,99.9
2022-09-03T06:07:56.646Z,99.9
2022-09-03T06:12:00.026Z,99.9
2022-09-03T06:14:00.403Z,99.9
2022-09-03T06:16:01.704Z,99.9
2022-09-03T06:18:02.924Z,99.9
2022-09-03T06:20:07.447Z,99.9
2022-09-03T06:22:08.708Z,99.9
2022-09-03T06:24:09.929Z,99.9
2022-09-03T06:26:11.177Z,99.9
2022-09-03T06:28:12.431Z,99.9
2022-09-03T06:30:13.681Z,99.9
2022-09-03T06:34:19.478Z,99.9
2022-09-03T06:36:20.711Z,99.9
2022-09-03T06:39:24.226Z,99.9
2022-09-03T06:41:25.456Z,99.9
2022-09-03T06:43:26.696Z,99.9
2022-09-03T06:45:27.987Z,99.9
2022-09-03T06:47:32.470Z,99.9
2022-09-03T06:49:33.723Z,99.9
2022-09-03T06:51:34.984Z,99.9
2022-09-03T06:57:38.742Z,99.9
2022-09-03T07:05:46.749Z,99.9
2022-09-03T07:07:47.989Z,99.9
2022-09-03T07:09:49.156Z,99.9
2022-09-03T07:11:51.836Z,99.9
2022-09-03T07:13:53.030Z,99.9
2022-09-03T07:15:57.383Z,99.9
2022-09-03T07:17:58.469Z,99.9
2022-09-03T07:19:59.605Z,99.9
2022-09-03T07:22:00.744Z,99.9
2022-09-03T07:24:01.872Z,99.9
2022-09-03T07:26:03.058Z,99.9
2022-09-03T07:28:04.147Z,99.9
2022-09-03T07:30:08.465Z,99.6
2022-09-03T07:32:09.625Z,99.5
2022-09-03T07:34:10.817Z,99.4
2022-09-03T07:38:39.903Z,99.1
2022-09-03T07:40:40.993Z,98.9
2022-09-03T07:42:45.327Z,98.6
2022-09-03T07:50:49.819Z,97.1
2022-09-03T07:52:50.929Z,96.7
2022-09-03T07:54:52.038Z,96.3
2022-09-03T07:58:57.553Z,95.3
2022-09-03T08:00:58.605Z,95.2
2022-09-03T08:02:59.698Z,94.9
2022-09-03T08:05:00.801Z,94.5
2022-09-03T08:13:08.357Z,82
2022-09-03T08:15:09.429Z,75.2
2022-09-03T08:17:10.486Z,74.6
2022-09-03T08:19:11.554Z,74.5
2022-09-03T08:21:12.513Z,73.1
2022-09-03T08:23:13.513Z,70.9
2022-09-03T08:25:17.723Z,70.3
2022-09-03T08:27:18.703Z,70.3
2022-09-03T08:29:19.667Z,70.2
2022-09-03T08:30:21.793Z,70.3
2022-09-03T08:32:22.696Z,70.2
2022-09-03T08:34:23.632Z,70.4
2022-09-03T08:36:24.547Z,70
2022-09-03T08:38:28.681Z,68.4
2022-09-03T08:40:29.589Z,67.8
2022-09-03T08:42:30.480Z,66.3
2022-09-03T08:46:32.233Z,65.5
2022-09-03T08:58:40.559Z,63.3
2022-09-03T09:00:41.389Z,63.1
2022-09-03T09:04:43.057Z,61.8
2022-09-03T09:06:47.117Z,60.9
2022-09-03T09:08:47.962Z,60.6
2022-09-03T09:10:48.772Z,60.2
2022-09-03T09:12:49.580Z,59.1
2022-09-03T09:14:50.396Z,58.9
2022-09-03T09:16:51.214Z,58.4
2022-09-03T09:18:52.014Z,57.8
2022-09-03T09:20:56.052Z,55.6
2022-09-03T09:22:56.873Z,55.1
2022-09-03T09:24:57.691Z,55
2022-09-03T09:25:59.723Z,55.4
2022-09-03T09:28:00.536Z,55.7
2022-09-03T09:30:01.333Z,55.9
2022-09-03T09:32:02.162Z,56
2022-09-03T09:40:08.676Z,54.3
2022-09-03T09:42:09.508Z,54
2022-09-03T09:44:10.270Z,53.4
2022-09-03T09:46:11.134Z,53.2
2022-09-03T09:48:15.134Z,53.2
2022-09-03T09:50:25.068Z,52.8
2022-09-03T09:54:17.601Z,52.4
2022-09-03T09:58:19.200Z,51.7
2022-09-03T10:00:20.080Z,51.1
2022-09-03T10:02:24.105Z,50.4
2022-09-03T10:04:25.703Z,49.9
2022-09-03T10:16:32.969Z,47.2
2022-09-03T10:20:34.630Z,46.4
2022-09-03T10:21:36.644Z,45.8
2022-09-03T10:23:37.487Z,45.6
2022-09-03T10:25:38.304Z,45.3
2022-09-03T10:27:41.034Z,45.2
2022-09-03T10:29:43.210Z,45.1
2022-09-03T10:31:44.007Z,45.2
2022-09-03T10:33:44.850Z,44.9
2022-09-03T10:35:45.691Z,44.6
2022-09-03T10:37:46.501Z,44.1
2022-09-03T10:39:52.038Z,43.9
2022-09-03T10:41:48.155Z,43.6
2022-09-03T10:51:55.531Z,42.1
2022-09-03T10:53:56.333Z,41.9
2022-09-03T10:58:01.226Z,41.3
2022-09-03T11:00:02.086Z,41.2
2022-09-03T11:02:02.857Z,41.2
2022-09-03T11:04:03.673Z,41
2022-09-03T11:06:04.516Z,40.9
2022-09-03T11:08:05.325Z,40.6
2022-09-03T11:10:06.129Z,40.4
2022-09-03T11:12:10.165Z,39.7
2022-09-03T11:14:10.963Z,39.3
2022-09-03T11:16:11.876Z,39.1
2022-09-03T11:18:39.344Z,39
2022-09-03T11:20:40.145Z,39.2
2022-09-03T11:22:40.960Z,39.2
2022-09-03T11:24:45.013Z,39
2022-09-03T11:26:45.769Z,38.9
2022-09-03T11:28:46.572Z,38.8
2022-09-03T11:30:47.459Z,38.5
2022-09-03T11:32:48.168Z,38.6
2022-09-03T11:34:48.960Z,38.7
2022-09-03T11:36:49.744Z,38.8
2022-09-03T11:38:53.736Z,38.8
2022-09-03T11:40:54.571Z,38.7
2022-09-03T11:42:55.316Z,38.6
2022-09-03T11:44:56.104Z,38.5
2022-09-03T11:48:57.727Z,38.6
2022-09-03T11:50:58.467Z,38.7
2022-09-03T11:53:02.518Z,38.8
2022-09-03T11:55:03.324Z,38.9
2022-09-03T11:57:04.115Z,39
2022-09-03T11:59:04.929Z,38.8
2022-09-03T12:09:12.240Z,38.4
2022-09-03T12:12:15.105Z,38.1
2022-09-03T12:14:15.954Z,38
2022-09-03T12:16:16.911Z,38
2022-09-03T12:22:22.578Z,38.5
2022-09-03T12:24:23.482Z,38.7
2022-09-03T12:26:24.321Z,38.7
2022-09-03T12:28:25.190Z,38.6
2022-09-03T12:30:26.063Z,38.4
2022-09-03T12:34:30.989Z,37.8
2022-09-03T12:36:31.862Z,37.8
2022-09-03T12:38:40.592Z,37.9
2022-09-03T12:40:33.710Z,37.9
2022-09-03T12:44:35.352Z,38
2022-09-03T12:46:36.312Z,38
2022-09-03T12:48:43.457Z,37.9
2022-09-03T12:50:42.416Z,37.8
2022-09-03T12:52:42.119Z,37.8
2022-09-03T12:54:43.039Z,37.7
2022-09-03T12:56:43.876Z,37.6
2022-09-03T12:58:44.763Z,37.7
2022-09-03T13:00:47.168Z,37.8
2022-09-03T13:02:51.224Z,38
2022-09-03T13:04:52.105Z,38
2022-09-03T13:06:52.975Z,38.1
2022-09-03T13:07:55.025Z,38.1
2022-09-03T13:09:55.912Z,38.1
2022-09-03T13:11:56.781Z,38.3
2022-09-03T13:13:57.689Z,38.4
2022-09-03T13:16:01.776Z,38.5
2022-09-03T13:24:05.339Z,38.6
2022-09-03T13:26:06.388Z,38.6
2022-09-03T13:28:07.091Z,38.6
2022-09-03T13:30:11.179Z,38.4
2022-09-03T13:32:12.063Z,38.3
2022-09-03T13:34:12.948Z,38.1
2022-09-03T13:42:16.493Z,38
2022-09-03T13:44:20.596Z,38
2022-09-03T13:46:21.551Z,38
2022-09-03T13:48:22.376Z,37.8
2022-09-03T13:58:30.000Z,38
2022-09-03T14:02:31.851Z,38.2
2022-09-03T14:03:33.834Z,38.4
2022-09-03T14:05:34.805Z,38.3
2022-09-03T14:07:35.601Z,38.5
2022-09-03T14:09:36.478Z,38.5
2022-09-03T14:11:40.591Z,38.8
2022-09-03T14:13:41.474Z,38.8
2022-09-03T14:15:45.579Z,38.7
2022-09-03T14:17:43.223Z,38.7
2022-09-03T14:19:44.107Z,38.5
2022-09-03T14:21:44.987Z,38.3
2022-09-03T14:23:45.890Z,38.1
2022-09-03T14:25:50.092Z,37.8
2022-09-03T14:27:50.888Z,37.7
2022-09-03T14:29:51.777Z,37.7
2022-09-03T14:31:52.723Z,37.7
2022-09-03T14:33:53.520Z,37.8
2022-09-03T14:35:54.409Z,38.1
2022-09-03T14:37:55.313Z,38.3
2022-09-03T14:39:59.495Z,38.5
2022-09-03T14:42:00.307Z,38.6
2022-09-03T14:44:01.259Z,38.5
2022-09-03T14:46:05.771Z,38.2
2022-09-03T14:48:02.983Z,38.1
2022-09-03T14:52:04.793Z,38.2
2022-09-03T14:54:08.929Z,38.6
2022-09-03T14:56:09.800Z,39
2022-09-03T14:58:10.702Z,39.3
2022-09-03T15:00:38.396Z,39.3
2022-09-03T15:04:40.164Z,39.4
2022-09-03T15:06:44.268Z,39.3
2022-09-03T15:08:45.181Z,39.3
2022-09-03T15:10:46.076Z,39.5
2022-09-03T15:12:46.956Z,39.4
2022-09-03T15:14:47.887Z,39.3
2022-09-03T15:16:48.864Z,39.2
2022-09-03T15:18:49.660Z,39.2
2022-09-03T15:20:53.788Z,39
2022-09-03T15:22:54.703Z,38.9
2022-09-03T15:24:55.594Z,38.8
2022-09-03T15:26:56.511Z,38.9
2022-09-03T15:28:57.370Z,38.8
2022-09-03T15:30:58.292Z,38.7
2022-09-03T15:32:59.184Z,38.6
2022-09-03T15:35:03.314Z,38.7
2022-09-03T15:37:07.178Z,38.8
2022-09-03T15:39:05.134Z,38.9
2022-09-03T15:41:06.026Z,39
2022-09-03T15:43:06.943Z,39.2
2022-09-03T15:45:07.833Z,39.4
2022-09-03T15:49:12.864Z,40
2022-09-03T15:51:13.779Z,40.2
2022-09-03T15:53:14.689Z,40.3
2022-09-03T15:54:16.743Z,40.5
2022-09-03T15:56:17.655Z,40.5
2022-09-03T15:58:18.567Z,40.5
2022-09-03T16:00:21.184Z,40.6
2022-09-03T16:02:23.600Z,40.7
2022-09-03T16:04:24.530Z,40.9
2022-09-03T16:06:25.448Z,41
2022-09-03T16:08:26.484Z,41.1
2022-09-03T16:10:27.308Z,41.4
2022-09-03T16:12:28.165Z,41.7
2022-09-03T16:14:29.075Z,41.8
2022-09-03T16:16:33.302Z,42.3
2022-09-03T16:18:34.145Z,42.3
2022-09-03T16:20:35.063Z,42.3
2022-09-03T16:22:35.959Z,42.2
2022-09-03T16:24:36.893Z,42.2
2022-09-03T16:26:37.827Z,42.1
2022-09-03T16:28:38.711Z,42.1
2022-09-03T16:30:42.874Z,42.2
2022-09-03T16:32:43.795Z,42.3
2022-09-03T16:34:44.720Z,42.5
2022-09-03T16:36:45.669Z,42.5
2022-09-03T16:40:47.485Z,42.6
2022-09-03T16:42:48.395Z,42.6
2022-09-03T16:46:53.492Z,43.2
2022-09-03T16:48:54.430Z,43.4
2022-09-03T16:49:56.484Z,43.4
2022-09-03T16:51:57.479Z,43.6
2022-09-03T16:53:58.349Z,43.6
2022-09-03T16:55:59.294Z,43.4
2022-09-03T16:58:03.449Z,43.1
2022-09-03T17:00:04.383Z,43.1
2022-09-03T17:02:18.191Z,42.9
2022-09-03T17:04:06.281Z,42.9
2022-09-03T17:06:07.235Z,42.8
2022-09-03T17:08:08.225Z,42.8
2022-09-03T17:10:09.286Z,42.8
2022-09-03T17:12:13.250Z,43.1
2022-09-03T17:14:14.162Z,43.3
2022-09-03T17:16:24.762Z,43.6
2022-09-03T17:18:16.067Z,43.8
2022-09-03T17:20:16.999Z,44.1
2022-09-03T17:22:17.951Z,44.2
2022-09-03T17:24:18.886Z,44.3
2022-09-03T17:26:23.099Z,44.7
2022-09-03T17:28:25.191Z,44.8
2022-09-03T17:30:24.967Z,45
2022-09-03T17:34:26.846Z,45.3
2022-09-03T17:40:32.961Z,45.9
2022-09-03T17:44:34.850Z,46.3
2022-09-03T17:45:36.921Z,46.6
2022-09-03T17:47:37.894Z,46.7
2022-09-03T17:49:38.861Z,46.7
2022-09-03T18:01:47.881Z,48.1
2022-09-03T18:03:48.882Z,48.2
2022-09-03T18:05:49.821Z,48.3
2022-09-03T18:07:54.015Z,48.8
2022-09-03T18:09:54.984Z,49.2
2022-09-03T18:11:55.952Z,49.5
2022-09-03T18:13:56.953Z,49.6
2022-09-03T18:15:57.961Z,49.9
2022-09-03T18:17:58.903Z,50.1
2022-09-03T18:20:00.022Z,50.3
2022-09-03T18:22:04.088Z,50.8
2022-09-03T18:24:05.076Z,51.1
2022-09-03T18:26:06.077Z,51.3
2022-09-03T18:28:07.068Z,51.4
2022-09-03T18:30:08.060Z,51.6
2022-09-03T18:32:09.044Z,51.7
2022-09-03T18:34:10.041Z,51.9
2022-09-03T18:36:14.257Z,52.4
2022-09-03T18:38:15.245Z,52.5
2022-09-03T18:40:16.257Z,53.2
2022-09-03T18:42:44.071Z,53.8
2022-09-03T18:44:45.064Z,54.3
2022-09-03T18:48:51.846Z,55.6
2022-09-03T18:50:52.824Z,55.8
2022-09-03T18:52:53.811Z,56.2
2022-09-03T18:56:55.824Z,57.3
2022-09-03T18:58:56.838Z,58.2
2022-09-03T19:00:57.835Z,58.5
2022-09-03T19:03:02.234Z,58.9
2022-09-03T19:05:03.067Z,59.1
2022-09-03T19:13:07.173Z,60
2022-09-03T19:17:12.350Z,61.4
2022-09-03T19:19:14.194Z,62.1
2022-09-03T19:21:14.383Z,63.1
2022-09-03T19:23:15.372Z,63.5
2022-09-03T19:25:16.480Z,64
2022-09-03T19:27:47.460Z,64.7
2022-09-03T19:29:18.433Z,65.1
2022-09-03T19:31:22.719Z,65.9
2022-09-03T19:33:23.740Z,66.2
2022-09-03T19:35:24.710Z,66.5
2022-09-03T19:36:26.828Z,67
2022-09-03T19:38:27.868Z,67.7
2022-09-03T19:40:28.859Z,68.6
2022-09-03T19:42:29.908Z,69.4
2022-09-03T19:44:34.127Z,70.4
2022-09-03T19:46:35.232Z,70.8
2022-09-03T19:48:36.172Z,71
2022-09-03T19:50:37.204Z,71.3
2022-09-03T19:52:38.251Z,71.6
2022-09-03T19:54:39.297Z,71.8
2022-09-03T19:56:40.314Z,72
2022-09-03T19:58:44.574Z,72.3
2022-09-03T20:04:47.675Z,72.7
2022-09-03T20:06:48.699Z,72.8
2022-09-03T20:08:49.730Z,72.9
2022-09-03T20:10:50.782Z,73.2
2022-09-03T20:12:55.035Z,76.2
2022-09-03T20:14:56.069Z,76.5
2022-09-03T20:16:57.129Z,77.8
2022-09-03T20:18:58.170Z,78.1
2022-09-03T20:20:59.212Z,79.6
2022-09-03T20:23:00.274Z,83.7
2022-09-03T20:31:07.795Z,87.9
2022-09-03T20:32:09.834Z,88.5
2022-09-03T20:40:17.287Z,91.7
2022-09-03T20:42:18.383Z,92
2022-09-03T20:48:21.650Z,93.2
2022-09-03T20:50:22.616Z,93.7
2022-09-03T20:52:23.688Z,94.4
2022-09-03T20:54:31.856Z,95.8
2022-09-03T20:56:29.044Z,96.3
2022-09-03T20:58:30.136Z,96.8
2022-09-03T21:00:31.229Z,97.3
2022-09-03T21:02:32.370Z,97.8
2022-09-03T21:04:33.365Z,98.1
2022-09-03T21:06:34.445Z,98.4
2022-09-03T21:08:38.743Z,98.9
2022-09-03T21:10:39.792Z,99.1
2022-09-03T21:12:40.877Z,99.3
2022-09-03T21:14:41.945Z,99.4
2022-09-03T21:24:50.578Z,99.8
2022-09-03T21:26:51.660Z,99.9
2022-09-03T21:27:53.816Z,99.9
2022-09-03T21:31:56.015Z,99.9
2022-09-03T21:36:01.540Z,99.9
2022-09-03T21:38:02.669Z,99.9
2022-09-03T21:40:06.243Z,99.9
2022-09-03T21:42:04.824Z,99.9
2022-09-03T21:44:05.893Z,99.9
2022-09-03T21:46:07.099Z,99.9
2022-09-03T21:48:08.211Z,99.9
2022-09-03T21:52:13.469Z,99.9
2022-09-03T22:00:17.849Z,99.9
2022-09-03T22:02:18.958Z,99.9
2022-09-03T22:12:27.584Z,99.9
2022-09-03T22:14:28.674Z,99.9
2022-09-03T22:16:29.840Z,99.9
2022-09-03T22:18:34.035Z,99.9
2022-09-03T22:20:35.138Z,99.9
2022-09-03T22:22:36.239Z,99.9
2022-09-03T22:27:05.446Z,99.9
2022-09-03T22:31:10.920Z,99.9
2022-09-03T22:33:11.919Z,99.9
2022-09-03T22:35:12.993Z,99.9
2022-09-03T22:37:14.099Z,99.9
2022-09-03T22:39:15.196Z,99.9
2022-09-03T22:43:17.378Z,99.9
2022-09-03T22:45:21.671Z,99.9
2022-09-03T22:49:23.894Z,99.9
2022-09-03T22:51:25.089Z,99.9
2022-09-03T22:53:26.187Z,99.9
2022-09-03T22:55:27.288Z,99.9
2022-09-03T22:57:28.386Z,99.9
2022-09-03T22:59:32.687Z,99.9
2022-09-03T23:03:34.956Z,99.9
2022-09-03T23:07:37.127Z,99.9
2022-09-03T23:09:38.208Z,99.9
2022-09-03T23:11:39.355Z,99.9
2022-09-03T23:15:44.752Z,99.9
2022-09-03T23:17:45.863Z,99.9
2022-09-03T23:18:48.046Z,99.9
2022-09-03T23:20:49.225Z,99.9
2022-09-03T23:24:51.405Z,99.9
2022-09-03T23:28:56.796Z,99.9
2022-09-03T23:32:59.018Z,99.9
2022-09-03T23:37:29.555Z,99.9
2022-09-03T23:41:06.874Z,99.9
2022-09-03T23:43:07.967Z,99.9
2022-09-03T23:45:10.231Z,99.9
2022-09-03T23:47:10.277Z,99.9
2022-09-03T23:55:18.353Z,99.9
2022-09-03T23:57:19.570Z,99.9
2022-09-03T23:59:20.798Z,99.9
